Terminal Aerodrome Forecast
Issued by NWS

Home | Current Version | Previous Version | Text Only | Print | Product List | Glossary On
Versions: 1 2 3 4 5 6 7 8 9 10 11 12 13 14 15 16 17 18 19 20 21 22 23 24 25 26
000
FTUS41 KPBZ 031700 AAC
TAFDUJ
TAF AMD
KDUJ 031702Z 0317/0412 14012KT 3SM -FZRASN OVC025
     FM032100 18008KT 4SM BR OVC010
     FM032300 19012KT 2SM -RA OVC005 WS020/21045KT
     FM041000 27008KT 3SM -SN OVC010=

USA.gov is the U.S. government's official web portal to all federal, state and local government web resources and services.